sensor_id;sensor_type;location;lat;lon;timestamp;pressure;altitude;pressure_sealevel;temperature;humidity
48555;BME280;34336;48.270;16.716;2023-04-05T00:01:45;109325.25;;;18.16;53.07
48555;BME280;34336;48.270;16.716;2023-04-05T00:04:15;109325.25;;;18.16;53.30
48555;BME280;34336;48.270;16.716;2023-04-05T00:06:46;109325.25;;;18.16;53.41
48555;BME280;34336;48.270;16.716;2023-04-05T00:09:18;109325.25;;;18.16;53.54
48555;BME280;34336;48.270;16.716;2023-04-05T00:11:48;109325.25;;;18.16;53.65
48555;BME280;34336;48.270;16.716;2023-04-05T00:14:14;109325.25;;;18.16;53.97
48555;BME280;34336;48.270;16.716;2023-04-05T00:16:41;109325.25;;;18.16;53.81
48555;BME280;34336;48.270;16.716;2023-04-05T00:19:08;109325.25;;;18.16;53.86
48555;BME280;34336;48.270;16.716;2023-04-05T00:21:38;109325.25;;;18.16;54.15
48555;BME280;34336;48.270;16.716;2023-04-05T00:24:05;109325.25;;;18.16;54.20
48555;BME280;34336;48.270;16.716;2023-04-05T00:26:32;109325.25;;;18.16;54.02
48555;BME280;34336;48.270;16.716;2023-04-05T00:28:59;109325.25;;;18.16;54.25
48555;BME280;34336;48.270;16.716;2023-04-05T00:31:27;109325.25;;;18.16;54.33
48555;BME280;34336;48.270;16.716;2023-04-05T00:33:54;109325.25;;;18.16;54.20
48555;BME280;34336;48.270;16.716;2023-04-05T00:36:21;109325.25;;;18.16;54.61
48555;BME280;34336;48.270;16.716;2023-04-05T00:38:48;109325.25;;;18.16;54.75
48555;BME280;34336;48.270;16.716;2023-04-05T00:41:17;109325.25;;;18.16;55.17
48555;BME280;34336;48.270;16.716;2023-04-05T00:43:44;109325.25;;;18.16;54.99
48555;BME280;34336;48.270;16.716;2023-04-05T00:46:11;109325.25;;;18.16;55.21
48555;BME280;34336;48.270;16.716;2023-04-05T00:48:38;109325.25;;;18.16;55.37
48555;BME280;34336;48.270;16.716;2023-04-05T00:51:04;109325.25;;;18.16;55.51
48555;BME280;34336;48.270;16.716;2023-04-05T00:53:35;109325.25;;;18.16;55.32
48555;BME280;34336;48.270;16.716;2023-04-05T00:56:03;109325.25;;;18.16;55.62
48555;BME280;34336;48.270;16.716;2023-04-05T00:58:30;109325.25;;;18.16;55.70
48555;BME280;34336;48.270;16.716;2023-04-05T01:01:12;109325.25;;;18.16;55.53
48555;BME280;34336;48.270;16.716;2023-04-05T01:03:40;109325.25;;;18.16;55.47
48555;BME280;34336;48.270;16.716;2023-04-05T01:11:38;109325.25;;;18.16;55.81
48555;BME280;34336;48.270;16.716;2023-04-05T01:14:05;109325.25;;;18.16;55.71
48555;BME280;34336;48.270;16.716;2023-04-05T01:16:32;109325.25;;;18.16;55.97
48555;BME280;34336;48.270;16.716;2023-04-05T01:18:58;109325.25;;;18.16;55.97
48555;BME280;34336;48.270;16.716;2023-04-05T01:26:32;109325.25;;;18.16;55.63
48555;BME280;34336;48.270;16.716;2023-04-05T01:34:46;109325.25;;;18.16;55.77
48555;BME280;34336;48.270;16.716;2023-04-05T01:37:17;109325.25;;;18.16;55.71
48555;BME280;34336;48.270;16.716;2023-04-05T01:39:45;109325.25;;;18.16;55.86
48555;BME280;34336;48.270;16.716;2023-04-05T01:42:17;109325.25;;;18.16;55.91
48555;BME280;34336;48.270;16.716;2023-04-05T01:44:49;109325.25;;;18.16;55.74
48555;BME280;34336;48.270;16.716;2023-04-05T01:47:15;109325.25;;;18.16;55.79
48555;BME280;34336;48.270;16.716;2023-04-05T01:49:42;109325.25;;;18.16;55.79
48555;BME280;34336;48.270;16.716;2023-04-05T01:52:09;109325.25;;;18.16;56.20
48555;BME280;34336;48.270;16.716;2023-04-05T01:54:35;109325.25;;;18.16;55.79
48555;BME280;34336;48.270;16.716;2023-04-05T01:57:02;109325.25;;;18.16;55.98
48555;BME280;34336;48.270;16.716;2023-04-05T01:59:28;109325.25;;;18.16;56.15
48555;BME280;34336;48.270;16.716;2023-04-05T02:01:58;109325.25;;;18.16;56.11
48555;BME280;34336;48.270;16.716;2023-04-05T02:04:26;109325.25;;;18.16;56.06
48555;BME280;34336;48.270;16.716;2023-04-05T02:06:52;109325.25;;;18.16;56.19
48555;BME280;34336;48.270;16.716;2023-04-05T02:09:19;109325.25;;;18.16;56.21
48555;BME280;34336;48.270;16.716;2023-04-05T02:11:46;109325.25;;;18.16;55.97
48555;BME280;34336;48.270;16.716;2023-04-05T02:14:12;109325.25;;;18.16;56.09
48555;BME280;34336;48.270;16.716;2023-04-05T02:16:40;109325.25;;;18.16;56.24
48555;BME280;34336;48.270;16.716;2023-04-05T02:19:07;109325.25;;;18.16;56.15
48555;BME280;34336;48.270;16.716;2023-04-05T02:21:33;109325.25;;;18.16;56.32
48555;BME280;34336;48.270;16.716;2023-04-05T02:24:02;109325.25;;;18.16;56.34
48555;BME280;34336;48.270;16.716;2023-04-05T02:26:29;109325.25;;;18.16;56.22
48555;BME280;34336;48.270;16.716;2023-04-05T02:28:56;109325.25;;;18.16;56.46
48555;BME280;34336;48.270;16.716;2023-04-05T02:31:22;109325.25;;;18.16;56.21
48555;BME280;34336;48.270;16.716;2023-04-05T02:33:49;109325.25;;;18.16;56.29
48555;BME280;34336;48.270;16.716;2023-04-05T02:36:16;109325.25;;;18.16;56.40
48555;BME280;34336;48.270;16.716;2023-04-05T02:38:43;109325.25;;;18.16;56.41
48555;BME280;34336;48.270;16.716;2023-04-05T02:41:10;109325.25;;;18.16;56.47
48555;BME280;34336;48.270;16.716;2023-04-05T02:43:37;109325.25;;;18.16;56.49
48555;BME280;34336;48.270;16.716;2023-04-05T02:46:04;109325.25;;;18.16;56.61
48555;BME280;34336;48.270;16.716;2023-04-05T02:48:35;109325.25;;;18.16;56.78
48555;BME280;34336;48.270;16.716;2023-04-05T02:51:02;109325.25;;;18.16;56.79
48555;BME280;34336;48.270;16.716;2023-04-05T02:53:29;109325.25;;;18.16;57.17
48555;BME280;34336;48.270;16.716;2023-04-05T02:55:59;109325.25;;;18.16;56.83
48555;BME280;34336;48.270;16.716;2023-04-05T02:58:28;109325.25;;;18.16;57.01
48555;BME280;34336;48.270;16.716;2023-04-05T03:00:54;109325.25;;;18.16;57.46
48555;BME280;34336;48.270;16.716;2023-04-05T03:03:29;109325.25;;;18.16;57.64
48555;BME280;34336;48.270;16.716;2023-04-05T03:05:57;109325.25;;;18.16;57.47
48555;BME280;34336;48.270;16.716;2023-04-05T03:08:29;109325.25;;;18.16;57.62
48555;BME280;34336;48.270;16.716;2023-04-05T03:11:02;109325.25;;;18.16;57.46
48555;BME280;34336;48.270;16.716;2023-04-05T03:13:28;109325.25;;;18.16;57.35
48555;BME280;34336;48.270;16.716;2023-04-05T03:15:56;109325.25;;;18.16;57.08
48555;BME280;34336;48.270;16.716;2023-04-05T03:18:25;109325.25;;;18.16;57.05
48555;BME280;34336;48.270;16.716;2023-04-05T03:20:56;109325.25;;;18.16;56.98
48555;BME280;34336;48.270;16.716;2023-04-05T03:23:24;109325.25;;;18.16;57.06
48555;BME280;34336;48.270;16.716;2023-04-05T03:25:53;109325.25;;;18.16;56.48
48555;BME280;34336;48.270;16.716;2023-04-05T03:28:25;109325.25;;;18.16;56.57
48555;BME280;34336;48.270;16.716;2023-04-05T03:30:57;109325.25;;;18.16;56.48
48555;BME280;34336;48.270;16.716;2023-04-05T03:33:24;109325.25;;;18.16;56.29
48555;BME280;34336;48.270;16.716;2023-04-05T03:35:51;109325.25;;;18.16;56.46
48555;BME280;34336;48.270;16.716;2023-04-05T03:38:19;109325.25;;;18.16;56.53
48555;BME280;34336;48.270;16.716;2023-04-05T03:41:08;109325.25;;;18.16;56.82
48555;BME280;34336;48.270;16.716;2023-04-05T03:43:35;109325.25;;;18.16;56.50
48555;BME280;34336;48.270;16.716;2023-04-05T03:46:02;109325.25;;;18.16;56.40
48555;BME280;34336;48.270;16.716;2023-04-05T03:48:28;109325.25;;;18.16;56.64
48555;BME280;34336;48.270;16.716;2023-04-05T03:50:55;109325.25;;;18.16;56.68
48555;BME280;34336;48.270;16.716;2023-04-05T03:53:21;109325.25;;;18.16;56.64
48555;BME280;34336;48.270;16.716;2023-04-05T03:55:52;109325.25;;;18.16;56.81
48555;BME280;34336;48.270;16.716;2023-04-05T03:58:26;109325.25;;;18.16;56.79
48555;BME280;34336;48.270;16.716;2023-04-05T04:00:54;109325.25;;;18.16;56.88
48555;BME280;34336;48.270;16.716;2023-04-05T04:03:22;109325.25;;;18.16;56.84
48555;BME280;34336;48.270;16.716;2023-04-05T04:05:51;109325.25;;;18.16;56.67
48555;BME280;34336;48.270;16.716;2023-04-05T04:08:18;109325.25;;;18.16;56.78
48555;BME280;34336;48.270;16.716;2023-04-05T04:10:45;109325.25;;;18.16;56.85
48555;BME280;34336;48.270;16.716;2023-04-05T04:13:23;109325.25;;;18.16;56.99
48555;BME280;34336;48.270;16.716;2023-04-05T04:16:01;109325.25;;;18.16;56.80
48555;BME280;34336;48.270;16.716;2023-04-05T04:18:44;109325.25;;;18.16;57.13
48555;BME280;34336;48.270;16.716;2023-04-05T04:21:17;109325.25;;;18.16;57.07
48555;BME280;34336;48.270;16.716;2023-04-05T04:24:09;109325.25;;;18.16;57.06
48555;BME280;34336;48.270;16.716;2023-04-05T04:27:04;109325.25;;;18.16;57.11
48555;BME280;34336;48.270;16.716;2023-04-05T04:29:58;109325.25;;;18.16;57.28
48555;BME280;34336;48.270;16.716;2023-04-05T04:32:45;109325.25;;;18.16;57.22
48555;BME280;34336;48.270;16.716;2023-04-05T04:35:30;109325.25;;;18.16;56.99
48555;BME280;34336;48.270;16.716;2023-04-05T04:38:09;109325.25;;;18.16;56.64
48555;BME280;34336;48.270;16.716;2023-04-05T04:41:05;109325.25;;;18.16;56.05
48555;BME280;34336;48.270;16.716;2023-04-05T04:43:52;109325.25;;;18.16;56.12
48555;BME280;34336;48.270;16.716;2023-04-05T04:46:32;109325.25;;;18.16;56.35
48555;BME280;34336;48.270;16.716;2023-04-05T04:49:23;109325.25;;;18.16;56.07
48555;BME280;34336;48.270;16.716;2023-04-05T04:51:50;109325.25;;;18.16;55.51
48555;BME280;34336;48.270;16.716;2023-04-05T04:54:19;109325.25;;;18.16;55.13
48555;BME280;34336;48.270;16.716;2023-04-05T04:56:47;109325.25;;;18.16;54.31
48555;BME280;34336;48.270;16.716;2023-04-05T04:59:13;109325.25;;;18.16;52.52
48555;BME280;34336;48.270;16.716;2023-04-05T05:01:43;109325.25;;;18.16;51.51
48555;BME280;34336;48.270;16.716;2023-04-05T05:04:10;109325.25;;;18.16;49.96
48555;BME280;34336;48.270;16.716;2023-04-05T05:06:38;109325.25;;;18.16;49.36
48555;BME280;34336;48.270;16.716;2023-04-05T05:09:05;109325.25;;;18.16;47.89
48555;BME280;34336;48.270;16.716;2023-04-05T05:11:35;109325.25;;;18.16;47.16
48555;BME280;34336;48.270;16.716;2023-04-05T05:14:06;109325.25;;;18.16;45.57
48555;BME280;34336;48.270;16.716;2023-04-05T05:16:32;109325.25;;;18.16;45.15
48555;BME280;34336;48.270;16.716;2023-04-05T05:18:59;109325.25;;;18.16;43.61
48555;BME280;34336;48.270;16.716;2023-04-05T05:21:32;109325.25;;;18.16;43.21
48555;BME280;34336;48.270;16.716;2023-04-05T05:24:01;109325.25;;;18.16;44.09
48555;BME280;34336;48.270;16.716;2023-04-05T05:26:27;109325.25;;;18.16;43.80
48555;BME280;34336;48.270;16.716;2023-04-05T05:28:54;109325.25;;;18.16;42.89
48555;BME280;34336;48.270;16.716;2023-04-05T05:31:26;109325.25;;;18.16;41.88
48555;BME280;34336;48.270;16.716;2023-04-05T05:33:55;109325.25;;;18.16;41.93
48555;BME280;34336;48.270;16.716;2023-04-05T05:36:22;109325.25;;;18.16;42.34
48555;BME280;34336;48.270;16.716;2023-04-05T05:38:48;109325.25;;;18.16;40.65
48555;BME280;34336;48.270;16.716;2023-04-05T05:41:15;109325.25;;;18.16;40.18
48555;BME280;34336;48.270;16.716;2023-04-05T05:43:41;109325.25;;;18.16;40.89
48555;BME280;34336;48.270;16.716;2023-04-05T05:46:08;109325.25;;;18.16;40.95
48555;BME280;34336;48.270;16.716;2023-04-05T05:48:34;109325.25;;;18.16;39.25
48555;BME280;34336;48.270;16.716;2023-04-05T05:51:02;109325.25;;;18.16;40.62
48555;BME280;34336;48.270;16.716;2023-04-05T05:53:38;109325.25;;;18.16;42.08
48555;BME280;34336;48.270;16.716;2023-04-05T05:56:06;109325.25;;;18.16;43.33
48555;BME280;34336;48.270;16.716;2023-04-05T05:58:33;109325.25;;;18.16;44.04
48555;BME280;34336;48.270;16.716;2023-04-05T06:00:59;109325.25;;;18.16;43.75
48555;BME280;34336;48.270;16.716;2023-04-05T06:03:26;109325.25;;;18.16;43.81
48555;BME280;34336;48.270;16.716;2023-04-05T06:05:56;109325.25;;;18.16;41.44
48555;BME280;34336;48.270;16.716;2023-04-05T06:08:23;109325.25;;;18.16;40.43
48555;BME280;34336;48.270;16.716;2023-04-05T06:10:51;109325.25;;;18.16;39.11
48555;BME280;34336;48.270;16.716;2023-04-05T06:13:17;109325.25;;;18.16;38.55
48555;BME280;34336;48.270;16.716;2023-04-05T06:15:44;109325.25;;;18.16;38.26
48555;BME280;34336;48.270;16.716;2023-04-05T06:18:12;109325.25;;;18.16;39.27
48555;BME280;34336;48.270;16.716;2023-04-05T06:20:39;109325.25;;;18.16;37.54
48555;BME280;34336;48.270;16.716;2023-04-05T06:23:06;109325.25;;;18.16;37.81
48555;BME280;34336;48.270;16.716;2023-04-05T06:25:33;109325.25;;;18.16;38.07
48555;BME280;34336;48.270;16.716;2023-04-05T06:28:01;109325.25;;;18.16;38.63
48555;BME280;34336;48.270;16.716;2023-04-05T06:30:28;109325.25;;;18.16;40.24
48555;BME280;34336;48.270;16.716;2023-04-05T06:32:54;109325.25;;;18.16;41.50
48555;BME280;34336;48.270;16.716;2023-04-05T06:35:21;109325.25;;;18.16;42.38
48555;BME280;34336;48.270;16.716;2023-04-05T06:37:48;109325.25;;;18.16;42.51
48555;BME280;34336;48.270;16.716;2023-04-05T06:40:15;109325.25;;;18.16;43.60
48555;BME280;34336;48.270;16.716;2023-04-05T06:42:42;109325.25;;;18.16;44.14
48555;BME280;34336;48.270;16.716;2023-04-05T06:45:14;109325.25;;;18.16;44.74
48555;BME280;34336;48.270;16.716;2023-04-05T06:47:41;109325.25;;;18.16;44.99
48555;BME280;34336;48.270;16.716;2023-04-05T06:50:08;109325.25;;;18.16;44.70
48555;BME280;34336;48.270;16.716;2023-04-05T06:52:35;109325.25;;;18.16;44.66
48555;BME280;34336;48.270;16.716;2023-04-05T06:55:01;109325.25;;;18.16;44.33
48555;BME280;34336;48.270;16.716;2023-04-05T06:57:28;109325.25;;;18.16;43.68
48555;BME280;34336;48.270;16.716;2023-04-05T06:59:55;109325.25;;;18.16;40.58
48555;BME280;34336;48.270;16.716;2023-04-05T07:02:21;109325.25;;;18.16;39.45
48555;BME280;34336;48.270;16.716;2023-04-05T07:04:48;109325.25;;;18.16;37.70
48555;BME280;34336;48.270;16.716;2023-04-05T07:07:14;109325.25;;;18.16;36.62
48555;BME280;34336;48.270;16.716;2023-04-05T07:09:42;109325.25;;;18.16;35.58
48555;BME280;34336;48.270;16.716;2023-04-05T07:12:08;109325.25;;;18.16;35.41
48555;BME280;34336;48.270;16.716;2023-04-05T07:14:36;109325.25;;;18.16;34.88
48555;BME280;34336;48.270;16.716;2023-04-05T07:17:06;109325.25;;;18.16;33.89
48555;BME280;34336;48.270;16.716;2023-04-05T07:19:32;109325.25;;;18.16;33.55
48555;BME280;34336;48.270;16.716;2023-04-05T07:21:59;109325.25;;;18.16;34.25
48555;BME280;34336;48.270;16.716;2023-04-05T07:24:26;109325.25;;;18.16;35.78
48555;BME280;34336;48.270;16.716;2023-04-05T07:26:53;109325.25;;;18.16;37.16
48555;BME280;34336;48.270;16.716;2023-04-05T07:29:19;109325.25;;;18.16;36.90
48555;BME280;34336;48.270;16.716;2023-04-05T07:31:46;109325.25;;;18.16;33.29
48555;BME280;34336;48.270;16.716;2023-04-05T07:34:12;109325.25;;;18.16;32.39
48555;BME280;34336;48.270;16.716;2023-04-05T07:36:39;109325.25;;;18.16;34.15
48555;BME280;34336;48.270;16.716;2023-04-05T07:39:06;109325.25;;;18.16;34.31
48555;BME280;34336;48.270;16.716;2023-04-05T07:41:32;109325.25;;;18.16;34.48
48555;BME280;34336;48.270;16.716;2023-04-05T07:44:00;109325.25;;;18.16;34.73
48555;BME280;34336;48.270;16.716;2023-04-05T07:46:27;109325.25;;;18.16;32.86
48555;BME280;34336;48.270;16.716;2023-04-05T07:48:55;109325.25;;;18.16;31.81
48555;BME280;34336;48.270;16.716;2023-04-05T07:51:21;109325.25;;;18.16;31.85
48555;BME280;34336;48.270;16.716;2023-04-05T07:53:48;109325.25;;;18.16;33.61
48555;BME280;34336;48.270;16.716;2023-04-05T07:56:14;109325.25;;;18.16;32.52
48555;BME280;34336;48.270;16.716;2023-04-05T07:58:41;109325.25;;;18.16;35.45
48555;BME280;34336;48.270;16.716;2023-04-05T08:01:08;109325.25;;;18.16;34.99
48555;BME280;34336;48.270;16.716;2023-04-05T08:03:36;109325.25;;;18.16;34.66
48555;BME280;34336;48.270;16.716;2023-04-05T08:06:12;109325.25;;;18.16;33.60
48555;BME280;34336;48.270;16.716;2023-04-05T08:08:39;109325.25;;;18.16;35.10
48555;BME280;34336;48.270;16.716;2023-04-05T08:11:06;109325.25;;;18.16;34.71
48555;BME280;34336;48.270;16.716;2023-04-05T08:13:32;109325.25;;;18.16;34.73
48555;BME280;34336;48.270;16.716;2023-04-05T08:16:03;109325.25;;;18.16;35.24
48555;BME280;34336;48.270;16.716;2023-04-05T08:18:30;109325.25;;;18.16;33.90
48555;BME280;34336;48.270;16.716;2023-04-05T08:20:57;109325.25;;;18.16;33.04
48555;BME280;34336;48.270;16.716;2023-04-05T08:23:23;109325.25;;;18.16;32.80
48555;BME280;34336;48.270;16.716;2023-04-05T08:25:50;109325.25;;;18.16;34.33
48555;BME280;34336;48.270;16.716;2023-04-05T08:28:16;109325.25;;;18.16;33.77
48555;BME280;34336;48.270;16.716;2023-04-05T08:30:43;109325.25;;;18.16;34.70
48555;BME280;34336;48.270;16.716;2023-04-05T08:33:10;109325.25;;;18.16;36.24
48555;BME280;34336;48.270;16.716;2023-04-05T08:35:37;109325.25;;;18.16;36.59
48555;BME280;34336;48.270;16.716;2023-04-05T08:38:07;109325.25;;;18.16;35.62
48555;BME280;34336;48.270;16.716;2023-04-05T08:40:46;109325.25;;;18.16;35.44
48555;BME280;34336;48.270;16.716;2023-04-05T08:45:46;109325.25;;;18.16;37.38
48555;BME280;34336;48.270;16.716;2023-04-05T08:48:15;109325.25;;;18.16;36.99
48555;BME280;34336;48.270;16.716;2023-04-05T08:50:41;109325.25;;;18.16;36.66
48555;BME280;34336;48.270;16.716;2023-04-05T08:53:08;109325.25;;;18.16;36.90
48555;BME280;34336;48.270;16.716;2023-04-05T08:55:38;109325.25;;;18.16;38.63
48555;BME280;34336;48.270;16.716;2023-04-05T08:58:12;109325.25;;;18.16;37.74
48555;BME280;34336;48.270;16.716;2023-04-05T09:00:38;109325.25;;;18.16;38.13
48555;BME280;34336;48.270;16.716;2023-04-05T09:03:06;109325.25;;;18.16;38.42
48555;BME280;34336;48.270;16.716;2023-04-05T09:05:36;109325.25;;;18.16;37.70
48555;BME280;34336;48.270;16.716;2023-04-05T09:08:04;109325.25;;;18.16;36.53
48555;BME280;34336;48.270;16.716;2023-04-05T09:10:31;109325.25;;;18.16;36.66
48555;BME280;34336;48.270;16.716;2023-04-05T09:12:58;109325.25;;;18.16;37.82
48555;BME280;34336;48.270;16.716;2023-04-05T09:15:25;109325.25;;;18.16;38.22
48555;BME280;34336;48.270;16.716;2023-04-05T09:17:52;109325.25;;;18.16;37.91
48555;BME280;34336;48.270;16.716;2023-04-05T09:20:20;109325.25;;;18.16;38.18
48555;BME280;34336;48.270;16.716;2023-04-05T09:22:47;109325.25;;;18.16;37.92
48555;BME280;34336;48.270;16.716;2023-04-05T09:25:32;109325.25;;;18.16;38.40
48555;BME280;34336;48.270;16.716;2023-04-05T09:27:58;109325.25;;;18.16;37.69
48555;BME280;34336;48.270;16.716;2023-04-05T09:30:25;109325.25;;;18.16;38.03
48555;BME280;34336;48.270;16.716;2023-04-05T09:32:54;109325.25;;;18.16;38.42
48555;BME280;34336;48.270;16.716;2023-04-05T09:35:21;109325.25;;;18.16;38.42
48555;BME280;34336;48.270;16.716;2023-04-05T09:37:51;109325.25;;;18.16;37.51
48555;BME280;34336;48.270;16.716;2023-04-05T09:40:23;109325.25;;;18.16;37.43
48555;BME280;34336;48.270;16.716;2023-04-05T09:42:50;109325.25;;;18.16;36.71
48555;BME280;34336;48.270;16.716;2023-04-05T09:45:18;109325.25;;;18.16;36.64
48555;BME280;34336;48.270;16.716;2023-04-05T09:47:55;109325.25;;;18.16;37.21
48555;BME280;34336;48.270;16.716;2023-04-05T09:50:22;109325.25;;;18.16;37.30
48555;BME280;34336;48.270;16.716;2023-04-05T09:52:51;109325.25;;;18.16;36.46
48555;BME280;34336;48.270;16.716;2023-04-05T09:55:31;109325.25;;;18.16;36.87
48555;BME280;34336;48.270;16.716;2023-04-05T09:57:58;109325.25;;;18.16;36.41
48555;BME280;34336;48.270;16.716;2023-04-05T10:00:27;109325.25;;;18.16;36.40
48555;BME280;34336;48.270;16.716;2023-04-05T10:02:54;109325.25;;;18.16;38.25
48555;BME280;34336;48.270;16.716;2023-04-05T10:05:22;109325.25;;;18.16;35.25
48555;BME280;34336;48.270;16.716;2023-04-05T10:07:49;109325.25;;;18.16;34.69
48555;BME280;34336;48.270;16.716;2023-04-05T10:10:15;109325.25;;;18.16;35.29
48555;BME280;34336;48.270;16.716;2023-04-05T10:12:42;109325.25;;;18.16;36.35
48555;BME280;34336;48.270;16.716;2023-04-05T10:15:10;109325.25;;;18.16;35.70
48555;BME280;34336;48.270;16.716;2023-04-05T10:17:48;109325.25;;;18.16;36.34
48555;BME280;34336;48.270;16.716;2023-04-05T10:20:18;109325.25;;;18.16;35.10
48555;BME280;34336;48.270;16.716;2023-04-05T10:22:56;109325.25;;;18.16;34.97
48555;BME280;34336;48.270;16.716;2023-04-05T10:27:54;109325.25;;;18.16;35.17
48555;BME280;34336;48.270;16.716;2023-04-05T10:30:27;109325.25;;;18.16;35.43
48555;BME280;34336;48.270;16.716;2023-04-05T10:40:38;109325.25;;;18.16;35.69
48555;BME280;34336;48.270;16.716;2023-04-05T10:43:10;109325.25;;;18.16;34.98
48555;BME280;34336;48.270;16.716;2023-04-05T10:45:39;109325.25;;;18.16;35.49
48555;BME280;34336;48.270;16.716;2023-04-05T10:50:52;109325.25;;;18.16;36.05
48555;BME280;34336;48.270;16.716;2023-04-05T10:53:18;109325.25;;;18.16;34.90
48555;BME280;34336;48.270;16.716;2023-04-05T10:55:46;109325.25;;;18.16;35.48
48555;BME280;34336;48.270;16.716;2023-04-05T10:58:13;109325.25;;;18.16;34.74
48555;BME280;34336;48.270;16.716;2023-04-05T11:00:40;109325.25;;;18.16;35.06
48555;BME280;34336;48.270;16.716;2023-04-05T11:03:08;109325.25;;;18.16;35.32
48555;BME280;34336;48.270;16.716;2023-04-05T11:05:35;109325.25;;;18.16;34.78
48555;BME280;34336;48.270;16.716;2023-04-05T11:08:06;109325.25;;;18.16;34.66
48555;BME280;34336;48.270;16.716;2023-04-05T11:10:37;109325.25;;;18.16;34.97
48555;BME280;34336;48.270;16.716;2023-04-05T11:13:05;109325.25;;;18.16;34.24
48555;BME280;34336;48.270;16.716;2023-04-05T11:15:33;109325.25;;;18.16;33.49
48555;BME280;34336;48.270;16.716;2023-04-05T11:20:39;109325.25;;;18.16;34.62
48555;BME280;34336;48.270;16.716;2023-04-05T11:23:09;109325.25;;;18.16;34.89
48555;BME280;34336;48.270;16.716;2023-04-05T11:25:37;109325.25;;;18.16;34.89
48555;BME280;34336;48.270;16.716;2023-04-05T11:28:05;109325.25;;;18.16;34.77
48555;BME280;34336;48.270;16.716;2023-04-05T11:31:10;109325.25;;;18.16;33.88
48555;BME280;34336;48.270;16.716;2023-04-05T11:33:34;109325.25;;;18.16;34.06
48555;BME280;34336;48.270;16.716;2023-04-05T11:36:01;109325.25;;;18.16;34.45
48555;BME280;34336;48.270;16.716;2023-04-05T11:38:30;109325.25;;;18.16;35.03
48555;BME280;34336;48.270;16.716;2023-04-05T11:41:11;109325.25;;;18.16;33.41
48555;BME280;34336;48.270;16.716;2023-04-05T11:43:38;109325.25;;;18.16;32.97
48555;BME280;34336;48.270;16.716;2023-04-05T11:46:04;109325.25;;;18.16;34.74
48555;BME280;34336;48.270;16.716;2023-04-05T11:48:31;109325.25;;;18.16;33.16
48555;BME280;34336;48.270;16.716;2023-04-05T11:50:58;109325.25;;;18.16;33.03
48555;BME280;34336;48.270;16.716;2023-04-05T11:53:25;109325.25;;;18.16;33.68
48555;BME280;34336;48.270;16.716;2023-04-05T11:55:51;109325.25;;;18.16;32.40
48555;BME280;34336;48.270;16.716;2023-04-05T11:58:20;109325.25;;;18.16;32.55
48555;BME280;34336;48.270;16.716;2023-04-05T12:00:55;109325.25;;;18.16;32.73
48555;BME280;34336;48.270;16.716;2023-04-05T12:03:22;109325.25;;;18.16;32.85
48555;BME280;34336;48.270;16.716;2023-04-05T12:05:49;109325.25;;;18.16;33.83
48555;BME280;34336;48.270;16.716;2023-04-05T12:08:16;109325.25;;;18.16;32.50
48555;BME280;34336;48.270;16.716;2023-04-05T12:10:43;109325.25;;;18.16;33.35
48555;BME280;34336;48.270;16.716;2023-04-05T12:13:10;109325.25;;;18.16;33.42
48555;BME280;34336;48.270;16.716;2023-04-05T12:15:38;109325.25;;;18.16;32.87
48555;BME280;34336;48.270;16.716;2023-04-05T12:18:11;109325.25;;;18.16;32.83
48555;BME280;34336;48.270;16.716;2023-04-05T12:20:38;109325.25;;;18.16;32.50
48555;BME280;34336;48.270;16.716;2023-04-05T12:23:05;109325.25;;;18.16;33.29
48555;BME280;34336;48.270;16.716;2023-04-05T12:25:31;109325.25;;;18.16;33.44
48555;BME280;34336;48.270;16.716;2023-04-05T12:28:04;109325.25;;;18.16;33.33
48555;BME280;34336;48.270;16.716;2023-04-05T12:30:32;109325.25;;;18.16;34.24
48555;BME280;34336;48.270;16.716;2023-04-05T12:33:08;109325.25;;;18.16;33.89
48555;BME280;34336;48.270;16.716;2023-04-05T12:35:35;109325.25;;;18.16;32.95
48555;BME280;34336;48.270;16.716;2023-04-05T12:38:02;109325.25;;;18.16;33.58
48555;BME280;34336;48.270;16.716;2023-04-05T12:40:31;109325.25;;;18.16;33.92
48555;BME280;34336;48.270;16.716;2023-04-05T12:43:06;109325.25;;;18.16;33.98
48555;BME280;34336;48.270;16.716;2023-04-05T12:45:34;109325.25;;;18.16;33.33
48555;BME280;34336;48.270;16.716;2023-04-05T12:48:08;109325.25;;;18.16;33.87
48555;BME280;34336;48.270;16.716;2023-04-05T12:50:39;109325.25;;;18.16;34.68
48555;BME280;34336;48.270;16.716;2023-04-05T12:53:07;109325.25;;;18.16;34.45
48555;BME280;34336;48.270;16.716;2023-04-05T12:55:37;109325.25;;;18.16;32.71
48555;BME280;34336;48.270;16.716;2023-04-05T12:58:08;109325.25;;;18.16;32.82
48555;BME280;34336;48.270;16.716;2023-04-05T13:00:34;109325.25;;;18.16;33.91
48555;BME280;34336;48.270;16.716;2023-04-05T13:03:01;109325.25;;;18.16;34.55
48555;BME280;34336;48.270;16.716;2023-04-05T13:05:28;109325.25;;;18.16;33.98
48555;BME280;34336;48.270;16.716;2023-04-05T13:07:56;109325.25;;;18.16;34.21
48555;BME280;34336;48.270;16.716;2023-04-05T13:10:23;109325.25;;;18.16;32.67
48555;BME280;34336;48.270;16.716;2023-04-05T13:12:50;109325.25;;;18.16;33.58
48555;BME280;34336;48.270;16.716;2023-04-05T13:15:17;109325.25;;;18.16;32.80
48555;BME280;34336;48.270;16.716;2023-04-05T13:17:43;109325.25;;;18.16;34.03
48555;BME280;34336;48.270;16.716;2023-04-05T13:20:10;109325.25;;;18.16;33.46
48555;BME280;34336;48.270;16.716;2023-04-05T13:22:37;109325.25;;;18.16;33.87
48555;BME280;34336;48.270;16.716;2023-04-05T13:25:04;109325.25;;;18.16;33.01